Time;durP1;ratioP1;P1;durP2;ratioP2;P2;SDS_P1;SDS_P2;PMS_P1;PMS_P2;Temp;Humidity;BMP_temperature;BMP_pressure;BME280_temperature;BME280_humidity;BME280_pressure;Samples;Min_cycle;Max_cycle;Signal;HPM_P1;HPM_P2
2024/02/16 00:01:02;;;;;;;9.55;7.95;;;12.00;99.90;;;;;;5073995;28;20203;-72
2024/02/16 00:03:30;;;;;;;9.10;6.18;;;12.00;99.90;;;;;;5073123;28;20233;-72
2024/02/16 00:05:56;;;;;;;8.88;6.63;;;12.00;99.90;;;;;;5074750;28;20200;-73
2024/02/16 00:08:24;;;;;;;13.57;6.78;;;11.90;99.90;;;;;;5072040;28;20215;-73
2024/02/16 00:10:51;;;;;;;10.15;7.43;;;11.90;99.90;;;;;;5073395;28;20662;-73
2024/02/16 00:13:18;;;;;;;10.18;8.05;;;11.80;99.90;;;;;;5072834;28;20238;-73
2024/02/16 00:15:45;;;;;;;11.68;6.55;;;11.70;99.90;;;;;;5073554;28;20204;-74
2024/02/16 00:18:13;;;;;;;12.63;6.05;;;11.80;99.90;;;;;;5074205;28;20196;-74
2024/02/16 00:20:40;;;;;;;7.03;6.07;;;11.80;99.90;;;;;;5073462;28;20231;-75
2024/02/16 00:23:07;;;;;;;6.90;5.53;;;11.80;99.90;;;;;;5074645;28;20227;-73
2024/02/16 00:25:34;;;;;;;11.13;6.97;;;11.80;99.90;;;;;;5074570;28;20219;-73
2024/02/16 00:28:19;;;;;;;9.30;6.78;;;11.80;99.90;;;;;;5072224;28;20662;-75
2024/02/16 00:30:46;;;;;;;20.50;7.80;;;11.70;99.90;;;;;;5072103;28;20199;-73
2024/02/16 00:33:17;;;;;;;9.32;7.70;;;11.80;99.90;;;;;;5073231;28;20223;-74
2024/02/16 00:35:43;;;;;;;10.13;7.75;;;11.80;99.90;;;;;;5070061;28;20210;-74
2024/02/16 00:38:11;;;;;;;6.97;5.57;;;11.70;99.90;;;;;;5073510;28;20273;-75
2024/02/16 00:40:43;;;;;;;6.18;5.13;;;11.70;99.90;;;;;;5072396;28;20200;-74
2024/02/16 00:43:10;;;;;;;10.52;7.03;;;11.80;99.90;;;;;;5060962;28;20298;-74
2024/02/16 00:45:37;;;;;;;12.43;6.80;;;11.70;99.90;;;;;;5069201;28;20203;-74
2024/02/16 00:48:07;;;;;;;7.63;6.38;;;11.70;99.90;;;;;;5067160;28;20565;-74
2024/02/16 00:50:36;;;;;;;9.80;6.97;;;11.70;99.90;;;;;;5073255;28;20286;-74
2024/02/16 00:53:04;;;;;;;12.85;6.20;;;11.60;99.90;;;;;;5072910;28;20272;-72
2024/02/16 00:55:31;;;;;;;11.90;6.38;;;11.60;99.90;;;;;;5072298;28;20273;-75
2024/02/16 00:57:58;;;;;;;8.27;6.45;;;11.60;99.90;;;;;;5056781;28;20296;-74
2024/02/16 01:00:25;;;;;;;8.55;6.10;;;11.60;99.90;;;;;;5068270;28;20207;-73
2024/02/16 01:02:53;;;;;;;10.65;7.43;;;11.60;99.90;;;;;;5067160;28;20255;-74
2024/02/16 01:05:20;;;;;;;10.13;7.97;;;11.60;99.90;;;;;;5073813;28;20563;-76
2024/02/16 01:07:49;;;;;;;7.80;5.85;;;11.60;99.90;;;;;;5069079;28;20227;-74
2024/02/16 01:10:16;;;;;;;7.20;6.10;;;11.70;99.90;;;;;;5071706;28;20712;-74
2024/02/16 01:12:44;;;;;;;6.07;5.03;;;11.70;99.90;;;;;;5070876;28;20569;-75
2024/02/16 01:15:11;;;;;;;6.72;6.03;;;11.70;99.90;;;;;;5073288;28;20215;-73
2024/02/16 01:17:38;;;;;;;6.38;5.38;;;11.80;99.90;;;;;;5073331;28;20575;-73
2024/02/16 01:20:10;;;;;;;9.98;6.63;;;11.70;99.90;;;;;;5059202;28;20569;-74
2024/02/16 01:22:37;;;;;;;8.77;5.40;;;11.60;99.90;;;;;;5069401;28;20224;-73
2024/02/16 01:25:07;;;;;;;9.82;5.55;;;11.60;99.90;;;;;;5066940;28;20261;-74
2024/02/16 01:27:34;;;;;;;8.75;6.30;;;11.60;99.90;;;;;;5070301;28;20206;-73
2024/02/16 01:30:01;;;;;;;6.65;5.50;;;11.60;99.90;;;;;;5066855;28;20260;-74
2024/02/16 01:32:28;;;;;;;11.23;7.18;;;11.70;99.90;;;;;;5064846;28;20741;-74
2024/02/16 01:34:55;;;;;;;9.60;5.55;;;11.70;99.90;;;;;;5069496;28;20215;-73
2024/02/16 01:37:22;;;;;;;12.05;6.07;;;11.60;99.90;;;;;;5059110;28;20730;-72
2024/02/16 01:39:50;;;;;;;5.80;4.78;;;11.60;99.90;;;;;;5069062;28;20199;-74
2024/02/16 01:42:18;;;;;;;6.65;5.88;;;11.50;99.90;;;;;;5070601;28;20265;-74
2024/02/16 01:44:45;;;;;;;13.82;5.18;;;11.60;99.90;;;;;;5122689;22;20232;-74
2024/02/16 01:47:12;;;;;;;6.60;5.68;;;11.60;99.90;;;;;;5034185;28;20206;-74
2024/02/16 01:49:40;;;;;;;6.90;4.45;;;11.70;99.90;;;;;;5038087;28;20672;-74
2024/02/16 01:52:07;;;;;;;6.95;5.70;;;11.70;99.90;;;;;;5030056;28;20211;-72
2024/02/16 01:54:34;;;;;;;7.72;5.90;;;11.70;99.90;;;;;;5031678;28;20339;-73
2024/02/16 01:57:02;;;;;;;8.73;5.15;;;11.70;99.90;;;;;;5034551;28;20274;-74
2024/02/16 01:59:30;;;;;;;10.65;5.72;;;11.60;99.90;;;;;;5037241;28;20196;-73
2024/02/16 02:01:58;;;;;;;8.73;5.93;;;11.60;99.90;;;;;;5038558;28;20273;-74
2024/02/16 02:04:24;;;;;;;9.23;5.15;;;11.60;99.90;;;;;;5024651;28;20599;-74
2024/02/16 02:06:51;;;;;;;18.58;5.95;;;11.60;99.90;;;;;;5028221;28;20297;-73
2024/02/16 02:09:18;;;;;;;5.85;4.72;;;11.60;99.90;;;;;;5032508;28;20204;-74
2024/02/16 02:11:45;;;;;;;8.40;6.32;;;11.50;99.90;;;;;;5030458;28;20205;-74
2024/02/16 02:14:12;;;;;;;7.68;5.32;;;11.60;99.90;;;;;;5032190;28;20593;-74
2024/02/16 02:16:41;;;;;;;8.07;4.95;;;11.60;99.90;;;;;;5032254;28;20193;-75
2024/02/16 02:19:08;;;;;;;7.55;4.07;;;11.60;99.90;;;;;;5035633;28;20227;-74
2024/02/16 02:21:36;;;;;;;7.32;4.40;;;11.60;99.90;;;;;;5035976;28;20201;-73
2024/02/16 02:24:05;;;;;;;7.05;3.83;;;11.50;99.90;;;;;;5034426;28;20225;-74
2024/02/16 02:26:32;;;;;;;7.68;4.70;;;11.40;99.90;;;;;;5031382;28;20628;-74
2024/02/16 02:29:00;;;;;;;13.98;5.25;;;11.40;99.90;;;;;;5021782;28;20209;-74
2024/02/16 02:31:27;;;;;;;6.53;4.53;;;11.40;99.90;;;;;;5031538;28;20236;-72
2024/02/16 02:33:54;;;;;;;6.38;5.15;;;11.40;99.90;;;;;;5030278;28;20639;-73
2024/02/16 02:36:21;;;;;;;5.63;3.75;;;11.40;99.90;;;;;;5029016;28;20298;-74
2024/02/16 02:38:48;;;;;;;4.28;3.22;;;11.30;99.90;;;;;;5030208;28;20300;-73
2024/02/16 02:41:19;;;;;;;6.85;4.00;;;11.40;99.90;;;;;;5029410;28;20659;-74
2024/02/16 02:43:46;;;;;;;5.63;4.38;;;11.40;99.90;;;;;;5026655;28;20629;-73
2024/02/16 02:46:16;;;;;;;4.85;3.90;;;11.50;99.90;;;;;;5036471;28;20200;-74
2024/02/16 02:48:43;;;;;;;7.70;3.40;;;11.40;99.90;;;;;;5031879;28;20197;-73
2024/02/16 02:51:10;;;;;;;5.68;4.20;;;11.40;99.90;;;;;;5021143;28;20697;-72
2024/02/16 02:53:37;;;;;;;5.25;3.80;;;11.40;99.90;;;;;;5021430;28;20236;-72
2024/02/16 02:56:05;;;;;;;4.82;3.88;;;11.50;99.90;;;;;;5021555;28;20590;-73
2024/02/16 02:58:33;;;;;;;5.35;3.22;;;11.50;99.90;;;;;;5021685;28;20255;-73
2024/02/16 03:01:00;;;;;;;5.82;3.67;;;11.60;99.90;;;;;;5035525;28;20221;-73
2024/02/16 03:03:29;;;;;;;9.40;3.45;;;11.60;99.90;;;;;;5035164;28;20628;-73
2024/02/16 03:05:57;;;;;;;5.68;3.67;;;11.60;99.90;;;;;;5030194;28;20208;-72
2024/02/16 03:08:24;;;;;;;4.60;2.85;;;11.70;99.90;;;;;;5027837;28;20201;-73
2024/02/16 03:10:51;;;;;;;6.40;3.72;;;11.70;99.90;;;;;;5025605;28;20224;-74
2024/02/16 03:13:18;;;;;;;6.32;3.05;;;11.70;99.90;;;;;;5034748;28;20314;-73
2024/02/16 03:15:47;;;;;;;6.65;4.03;;;11.70;99.90;;;;;;5039617;28;20319;-72
2024/02/16 03:18:14;;;;;;;8.13;4.32;;;11.70;99.90;;;;;;5037209;28;20210;-73
2024/02/16 03:20:45;;;;;;;5.35;3.70;;;11.70;99.90;;;;;;5032285;28;20210;-74
2024/02/16 03:23:12;;;;;;;5.50;3.40;;;11.70;99.90;;;;;;5029477;28;20224;-74
2024/02/16 03:25:39;;;;;;;3.22;2.00;;;11.70;99.90;;;;;;5035435;28;20193;-72
2024/02/16 03:28:06;;;;;;;4.05;2.80;;;11.70;99.90;;;;;;5035596;28;20231;-72
2024/02/16 03:30:34;;;;;;;5.35;3.30;;;11.70;99.90;;;;;;5032933;28;20197;-73
2024/02/16 03:33:02;;;;;;;9.45;4.20;;;11.70;99.90;;;;;;5035300;28;20220;-73
2024/02/16 03:35:29;;;;;;;6.90;3.83;;;11.80;99.90;;;;;;5037548;28;20217;-73
2024/02/16 03:37:56;;;;;;;3.85;2.90;;;11.70;99.90;;;;;;5037356;28;20213;-73
2024/02/16 03:40:24;;;;;;;6.32;3.35;;;11.80;99.90;;;;;;5034762;28;20240;-73
2024/02/16 03:42:51;;;;;;;3.58;2.67;;;11.80;99.90;;;;;;5035502;28;20231;-74
2024/02/16 03:45:18;;;;;;;4.53;2.60;;;11.80;99.90;;;;;;5034625;28;20239;-72
2024/02/16 03:47:45;;;;;;;3.33;2.80;;;11.80;99.90;;;;;;5037221;28;20421;-74
2024/02/16 03:50:14;;;;;;;6.07;3.83;;;11.80;99.90;;;;;;5039629;28;20205;-74
2024/02/16 03:52:41;;;;;;;4.32;2.90;;;11.80;99.90;;;;;;5035353;28;20225;-74
2024/02/16 03:55:09;;;;;;;3.40;3.10;;;11.80;99.90;;;;;;5034973;28;20764;-74
2024/02/16 03:57:36;;;;;;;3.80;2.70;;;11.80;99.90;;;;;;5035453;28;20205;-73
2024/02/16 04:00:05;;;;;;;4.70;2.45;;;11.80;99.90;;;;;;5034512;28;20213;-73
2024/02/16 04:02:32;;;;;;;4.13;2.60;;;11.80;99.90;;;;;;5030609;28;20263;-74
2024/02/16 04:04:59;;;;;;;3.03;2.83;;;11.90;99.90;;;;;;5035231;28;20205;-74
2024/02/16 04:07:28;;;;;;;4.15;2.78;;;11.90;99.90;;;;;;5029518;28;20659;-74
2024/02/16 04:09:55;;;;;;;5.47;3.00;;;11.90;99.90;;;;;;5032619;28;20205;-75
2024/02/16 04:12:22;;;;;;;3.10;2.42;;;11.90;99.90;;;;;;5028498;28;20221;-74
2024/02/16 04:14:49;;;;;;;4.55;3.00;;;11.90;99.90;;;;;;5034951;28;20227;-74
2024/02/16 04:17:16;;;;;;;4.70;2.95;;;11.90;99.90;;;;;;5035198;28;20208;-74
2024/02/16 04:19:44;;;;;;;3.58;2.63;;;11.90;99.90;;;;;;5035149;28;20196;-72
2024/02/16 04:22:11;;;;;;;6.40;2.95;;;11.90;99.90;;;;;;5035562;28;20292;-73
2024/02/16 04:24:39;;;;;;;4.70;3.53;;;11.90;99.90;;;;;;5034475;28;20275;-74
2024/02/16 04:27:06;;;;;;;6.40;2.80;;;11.80;99.90;;;;;;5030029;28;20287;-73
2024/02/16 04:29:34;;;;;;;4.85;2.53;;;11.80;99.90;;;;;;5034347;28;20635;-75
2024/02/16 04:32:00;;;;;;;4.00;3.13;;;11.80;99.90;;;;;;5033437;28;20278;-74
2024/02/16 04:34:27;;;;;;;7.55;3.13;;;11.80;99.90;;;;;;5034394;28;20201;-74
2024/02/16 04:36:54;;;;;;;7.35;4.05;;;11.90;99.90;;;;;;5034921;28;20266;-74
2024/02/16 04:39:21;;;;;;;5.35;2.15;;;11.90;99.90;;;;;;5034017;28;20201;-73
2024/02/16 04:41:51;;;;;;;4.18;3.33;;;11.90;99.90;;;;;;5032871;28;20205;-73
2024/02/16 04:44:18;;;;;;;5.03;3.40;;;11.90;99.90;;;;;;5030568;28;20235;-73
2024/02/16 04:46:45;;;;;;;4.00;2.83;;;11.90;99.90;;;;;;5028749;28;20610;-73
2024/02/16 04:49:12;;;;;;;6.18;3.17;;;11.90;99.90;;;;;;5035539;28;20228;-74
2024/02/16 04:51:40;;;;;;;6.95;2.90;;;11.90;99.90;;;;;;5039213;28;20736;-73
2024/02/16 04:54:07;;;;;;;3.67;3.20;;;11.90;99.90;;;;;;5041453;28;20231;-74
2024/02/16 04:56:34;;;;;;;3.85;2.95;;;11.90;99.90;;;;;;5036347;28;20209;-75
2024/02/16 04:59:01;;;;;;;6.13;2.88;;;11.90;99.90;;;;;;5035816;28;20206;-73
2024/02/16 05:01:29;;;;;;;2.45;2.25;;;11.90;99.90;;;;;;5024898;28;20235;-74
2024/02/16 05:03:56;;;;;;;5.68;2.53;;;11.80;99.90;;;;;;5032795;28;20224;-74
2024/02/16 05:06:24;;;;;;;5.95;4.40;;;11.80;99.90;;;;;;5034025;28;20526;-73
2024/02/16 05:08:51;;;;;;;3.63;2.88;;;11.80;99.90;;;;;;5034145;28;20634;-72
2024/02/16 05:11:18;;;;;;;5.88;2.75;;;11.80;99.90;;;;;;5032743;28;20276;-74
2024/02/16 05:13:45;;;;;;;5.03;3.00;;;11.70;99.90;;;;;;5026611;28;20225;-74
2024/02/16 05:16:13;;;;;;;3.60;2.97;;;11.70;99.90;;;;;;5018427;28;20213;-73
2024/02/16 05:18:40;;;;;;;2.90;2.10;;;11.70;99.90;;;;;;5032254;28;20251;-73
2024/02/16 05:21:08;;;;;;;6.53;2.95;;;11.70;99.90;;;;;;5033065;28;20208;-74
2024/02/16 05:23:35;;;;;;;4.00;2.75;;;11.70;99.90;;;;;;5033526;28;20286;-74
2024/02/16 05:26:01;;;;;;;2.90;2.28;;;11.70;99.90;;;;;;5031082;28;20243;-74
2024/02/16 05:28:29;;;;;;;3.63;2.53;;;11.70;99.90;;;;;;5032801;28;20259;-74
2024/02/16 05:30:56;;;;;;;3.55;3.25;;;11.70;99.90;;;;;;5029311;28;20319;-74
2024/02/16 05:33:24;;;;;;;3.95;2.50;;;11.70;99.90;;;;;;5026545;28;20382;-74
2024/02/16 05:35:55;;;;;;;2.88;2.60;;;11.70;99.90;;;;;;5036167;28;20260;-74
2024/02/16 05:38:32;;;;;;;5.75;3.00;;;11.70;99.90;;;;;;5024449;28;20202;-73
2024/02/16 05:40:59;;;;;;;5.38;2.60;;;11.80;99.90;;;;;;5018885;28;20212;-74
2024/02/16 05:43:26;;;;;;;3.45;2.65;;;11.80;99.90;;;;;;5027866;28;20240;-74
2024/02/16 05:45:53;;;;;;;5.05;3.30;;;11.80;99.90;;;;;;5027740;28;20200;-74
2024/02/16 05:48:21;;;;;;;4.63;3.05;;;11.80;99.90;;;;;;5026849;28;20197;-74
2024/02/16 05:50:50;;;;;;;4.40;3.03;;;11.80;99.90;;;;;;5032058;28;20204;-72
2024/02/16 05:53:18;;;;;;;5.38;3.22;;;11.70;99.90;;;;;;5037912;28;20231;-73
2024/02/16 05:55:47;;;;;;;5.47;2.50;;;11.70;99.90;;;;;;5033314;28;20627;-74
2024/02/16 05:58:13;;;;;;;12.63;3.75;;;11.80;99.90;;;;;;5026850;28;20262;-73
2024/02/16 06:00:42;;;;;;;7.50;3.83;;;11.80;99.90;;;;;;5028147;28;20201;-73
2024/02/16 06:03:09;;;;;;;7.03;3.28;;;11.70;99.90;;;;;;5032148;28;20836;-74
2024/02/16 06:05:36;;;;;;;6.00;2.85;;;11.70;99.90;;;;;;5032804;28;20255;-74
2024/02/16 06:08:05;;;;;;;4.80;2.97;;;11.70;99.90;;;;;;5032521;28;20228;-74
2024/02/16 06:10:32;;;;;;;5.25;3.05;;;11.60;99.90;;;;;;5031919;28;20208;-74
2024/02/16 06:12:59;;;;;;;4.13;3.60;;;11.50;99.90;;;;;;5032628;28;20229;-74
2024/02/16 06:15:26;;;;;;;6.30;2.92;;;11.50;99.90;;;;;;5032719;28;20212;-74
2024/02/16 06:17:53;;;;;;;4.07;3.10;;;11.50;99.90;;;;;;5032281;28;20266;-73
2024/02/16 06:20:20;;;;;;;4.85;3.38;;;11.50;99.90;;;;;;5032143;28;20647;-75
2024/02/16 06:22:48;;;;;;;9.65;4.55;;;11.50;99.90;;;;;;5032122;28;20704;-75
2024/02/16 06:25:16;;;;;;;7.18;3.65;;;11.50;99.90;;;;;;5029265;28;20714;-76
2024/02/16 06:27:43;;;;;;;4.40;3.65;;;11.50;99.90;;;;;;5033181;28;20208;-73
2024/02/16 06:30:12;;;;;;;7.53;3.60;;;11.50;99.90;;;;;;5039631;28;20200;-74
2024/02/16 06:32:40;;;;;;;5.40;3.55;;;11.50;99.90;;;;;;5031476;28;20217;-74
2024/02/16 06:35:08;;;;;;;4.85;3.17;;;11.50;99.90;;;;;;5031022;28;20208;-76
2024/02/16 06:37:37;;;;;;;6.05;3.30;;;11.60;99.90;;;;;;5031329;28;20208;-75
2024/02/16 06:40:06;;;;;;;5.05;3.83;;;11.60;99.90;;;;;;5034531;28;20887;-74
2024/02/16 06:42:35;;;;;;;2.55;2.35;;;11.60;99.90;;;;;;5031494;28;20216;-74
2024/02/16 06:45:03;;;;;;;6.78;3.45;;;11.60;99.90;;;;;;5032102;28;20224;-74
2024/02/16 06:47:30;;;;;;;4.30;3.25;;;11.70;99.90;;;;;;5031981;28;20621;-74
2024/02/16 06:49:57;;;;;;;5.75;3.95;;;11.70;99.90;;;;;;5027259;28;20671;-74
2024/02/16 06:52:24;;;;;;;4.18;3.15;;;11.70;99.90;;;;;;5025471;28;20616;-73
2024/02/16 06:54:51;;;;;;;3.50;2.75;;;11.70;99.90;;;;;;5040244;28;20270;-73
2024/02/16 06:57:19;;;;;;;3.17;2.88;;;11.90;99.90;;;;;;5032267;28;20236;-74
2024/02/16 06:59:48;;;;;;;5.25;3.45;;;12.00;99.90;;;;;;5031259;28;20205;-75
2024/02/16 07:02:17;;;;;;;3.60;3.28;;;12.00;99.90;;;;;;5030619;28;20223;-73
2024/02/16 07:04:45;;;;;;;5.78;4.15;;;12.00;99.90;;;;;;5029938;28;20208;-73
2024/02/16 07:07:12;;;;;;;7.75;3.65;;;12.00;99.90;;;;;;5033182;28;20659;-73
2024/02/16 07:09:39;;;;;;;6.68;4.20;;;12.00;99.90;;;;;;5030891;28;20196;-75
2024/02/16 07:12:07;;;;;;;4.18;3.78;;;12.10;99.90;;;;;;5033110;28;20246;-74
2024/02/16 07:14:35;;;;;;;4.88;3.28;;;12.00;99.90;;;;;;5033442;28;20283;-74
2024/02/16 07:17:03;;;;;;;4.82;3.58;;;12.00;99.90;;;;;;5031256;28;20231;-75
2024/02/16 07:19:31;;;;;;;5.85;4.00;;;12.00;99.90;;;;;;5032884;28;20205;-76
2024/02/16 07:22:00;;;;;;;5.25;3.60;;;12.00;99.90;;;;;;5030458;28;20244;-74
2024/02/16 07:24:27;;;;;;;8.63;3.80;;;12.10;99.90;;;;;;5030860;28;20263;-73
2024/02/16 07:26:54;;;;;;;5.13;3.60;;;12.00;99.90;;;;;;5032023;28;20291;-74
2024/02/16 07:29:23;;;;;;;4.72;2.92;;;12.10;99.90;;;;;;5031360;28;20204;-73
2024/02/16 07:31:52;;;;;;;4.90;3.08;;;12.10;99.90;;;;;;5030352;28;20287;-74
2024/02/16 07:34:20;;;;;;;8.43;3.90;;;12.10;99.90;;;;;;5029608;28;20221;-73
2024/02/16 07:36:47;;;;;;;5.20;3.28;;;12.10;99.90;;;;;;5031382;28;20296;-73
2024/02/16 07:39:14;;;;;;;5.55;3.65;;;12.10;99.90;;;;;;5020763;28;20197;-73
2024/02/16 07:41:41;;;;;;;3.22;2.80;;;12.20;99.90;;;;;;5029899;28;20217;-72
2024/02/16 07:44:08;;;;;;;7.03;3.72;;;12.30;99.90;;;;;;5031382;28;20281;-74
2024/02/16 07:46:41;;;;;;;5.47;3.55;;;12.30;99.90;;;;;;5036538;28;20332;-74
2024/02/16 07:49:10;;;;;;;4.40;3.67;;;12.40;99.90;;;;;;5033571;28;20706;-74
2024/02/16 07:51:39;;;;;;;6.55;3.88;;;12.60;99.90;;;;;;5036109;28;20197;-72
2024/02/16 07:54:08;;;;;;;4.55;3.17;;;12.70;99.90;;;;;;5034995;28;20343;-74
2024/02/16 07:56:35;;;;;;;6.50;3.83;;;12.80;99.90;;;;;;5034539;28;20702;-75
2024/02/16 07:59:02;;;;;;;7.40;4.25;;;12.90;99.90;;;;;;5034962;28;20208;-73
2024/02/16 08:01:29;;;;;;;8.18;3.45;;;12.90;99.90;;;;;;5034061;28;20228;-74
2024/02/16 08:03:56;;;;;;;5.43;3.15;;;12.90;99.90;;;;;;5035731;28;20777;-75
2024/02/16 08:06:26;;;;;;;3.10;2.75;;;12.90;99.90;;;;;;5030890;28;20511;-73
2024/02/16 08:08:55;;;;;;;5.05;3.95;;;13.00;99.90;;;;;;5032722;28;20216;-75
2024/02/16 08:11:22;;;;;;;4.30;2.50;;;13.00;99.90;;;;;;5036455;28;20258;-73
2024/02/16 08:13:49;;;;;;;6.50;3.13;;;13.00;99.90;;;;;;5030773;28;20255;-75
2024/02/16 08:16:16;;;;;;;3.97;2.90;;;13.10;99.90;;;;;;5036796;28;20226;-75
2024/02/16 08:18:45;;;;;;;4.38;2.58;;;13.00;99.90;;;;;;5034459;28;20197;-74
2024/02/16 08:21:12;;;;;;;4.55;2.90;;;13.10;99.90;;;;;;5031876;28;20208;-74
2024/02/16 08:23:39;;;;;;;2.20;2.00;;;13.20;99.90;;;;;;5026820;28;20274;-74
2024/02/16 08:26:07;;;;;;;3.92;2.85;;;13.30;99.90;;;;;;5036380;28;20271;-73
2024/02/16 08:28:34;;;;;;;10.75;3.22;;;13.30;99.90;;;;;;5037034;28;20212;-75
2024/02/16 08:31:01;;;;;;;4.70;3.05;;;13.40;99.90;;;;;;5027351;28;20208;-75
2024/02/16 08:33:28;;;;;;;5.38;2.90;;;13.50;99.90;;;;;;5035874;28;20707;-74
2024/02/16 08:35:55;;;;;;;4.40;2.38;;;13.50;99.90;;;;;;5033731;28;20250;-73
2024/02/16 08:38:22;;;;;;;6.85;3.38;;;13.60;99.90;;;;;;5033222;28;20205;-76
2024/02/16 08:40:51;;;;;;;3.70;2.35;;;13.50;99.90;;;;;;5034284;28;20209;-75
2024/02/16 08:43:20;;;;;;;3.30;2.92;;;13.70;99.90;;;;;;5029673;28;20228;-73
2024/02/16 08:45:47;;;;;;;6.93;3.45;;;13.70;99.90;;;;;;5027620;28;20278;-74
2024/02/16 08:48:14;;;;;;;3.10;2.30;;;13.80;99.90;;;;;;5032901;28;20278;-74
2024/02/16 08:50:41;;;;;;;5.47;2.28;;;13.80;99.90;;;;;;5035824;28;20246;-75
2024/02/16 08:53:10;;;;;;;7.97;2.65;;;13.90;99.90;;;;;;5020616;28;20236;-73
2024/02/16 08:55:37;;;;;;;5.25;3.33;;;14.00;99.90;;;;;;5020716;28;20207;-74
2024/02/16 08:58:05;;;;;;;3.95;2.63;;;14.20;99.90;;;;;;5032068;28;20298;-76
2024/02/16 09:00:33;;;;;;;4.85;3.00;;;14.30;99.90;;;;;;5033867;28;20251;-74
2024/02/16 09:03:02;;;;;;;5.07;2.73;;;14.50;99.90;;;;;;5036524;28;20594;-75
2024/02/16 09:05:29;;;;;;;4.07;2.90;;;14.80;99.90;;;;;;5033394;28;20949;-76
2024/02/16 09:07:56;;;;;;;5.05;2.60;;;14.90;99.90;;;;;;5032324;28;20878;-73
2024/02/16 09:10:24;;;;;;;4.10;2.75;;;15.00;99.90;;;;;;5031360;28;20250;-74
2024/02/16 09:12:51;;;;;;;4.18;2.47;;;15.00;99.90;;;;;;5030117;28;20303;-74
2024/02/16 09:15:18;;;;;;;2.97;2.58;;;15.20;99.90;;;;;;5032560;28;20243;-75
2024/02/16 09:17:47;;;;;;;3.88;3.05;;;15.20;99.90;;;;;;5033328;28;20315;-75
2024/02/16 09:20:14;;;;;;;5.10;2.90;;;15.40;99.90;;;;;;5031941;28;20197;-76
2024/02/16 09:22:41;;;;;;;6.40;4.50;;;15.50;99.90;;;;;;5032771;28;20480;-75
2024/02/16 09:25:09;;;;;;;7.80;4.53;;;15.50;99.90;;;;;;5033216;28;20474;-75
2024/02/16 09:27:40;;;;;;;7.00;2.50;;;15.70;99.90;;;;;;5032186;28;20435;-75
2024/02/16 09:30:10;;;;;;;6.33;3.30;;;15.70;99.90;;;;;;5032574;28;20479;-74
2024/02/16 09:32:37;;;;;;;9.43;2.00;;;15.70;99.90;;;;;;5031813;28;20484;-75
2024/02/16 09:35:06;;;;;;;4.70;2.60;;;15.80;99.90;;;;;;5026479;28;20515;-76
2024/02/16 09:37:33;;;;;;;4.50;2.70;;;16.00;99.90;;;;;;5033480;28;20604;-74
2024/02/16 09:40:00;;;;;;;4.13;2.13;;;16.00;99.90;;;;;;5032428;28;20633;-74
2024/02/16 09:42:27;;;;;;;10.30;2.13;;;16.20;99.90;;;;;;5032935;28;20467;-73
2024/02/16 09:44:55;;;;;;;6.13;2.57;;;16.20;99.90;;;;;;5032967;28;20456;-74
2024/02/16 09:47:25;;;;;;;5.20;2.50;;;16.40;99.90;;;;;;5027123;28;20468;-73
2024/02/16 09:49:52;;;;;;;5.43;2.30;;;16.30;99.90;;;;;;5032260;28;20476;-75
2024/02/16 09:52:21;;;;;;;3.90;2.10;;;16.20;99.90;;;;;;5026782;28;20581;-73
2024/02/16 09:54:48;;;;;;;3.47;2.37;;;16.20;99.90;;;;;;5040115;28;20447;-74
2024/02/16 09:57:18;;;;;;;4.27;2.87;;;15.80;99.90;;;;;;5028049;28;20565;-74
2024/02/16 09:59:45;;;;;;;5.05;2.80;;;15.70;99.90;;;;;;5039162;28;20866;-74
2024/02/16 10:02:12;;;;;;;8.00;3.55;;;15.70;99.90;;;;;;5035833;28;20208;-74
2024/02/16 10:04:39;;;;;;;6.38;2.92;;;15.60;99.90;;;;;;5028845;28;20205;-75
2024/02/16 10:07:06;;;;;;;6.37;2.77;;;15.70;99.90;;;;;;5026390;28;20193;-73
2024/02/16 10:09:35;;;;;;;6.00;2.83;;;15.60;99.90;;;;;;5027173;28;20459;-74
2024/02/16 10:12:02;;;;;;;2.72;2.38;;;15.70;99.90;;;;;;5026666;28;20443;-75
2024/02/16 10:14:31;;;;;;;4.03;2.55;;;15.60;99.90;;;;;;5031537;28;20568;-73
2024/02/16 10:17:03;;;;;;;3.35;2.38;;;15.50;99.90;;;;;;5035095;28;20220;-74
2024/02/16 10:19:36;;;;;;;4.60;2.60;;;15.40;99.90;;;;;;5036947;28;20640;-74
2024/02/16 10:22:08;;;;;;;4.00;2.30;;;15.30;99.90;;;;;;5038545;28;20442;-73
2024/02/16 10:24:38;;;;;;;3.60;2.40;;;15.40;99.90;;;;;;5025755;28;20530;-73
2024/02/16 10:27:06;;;;;;;5.20;2.60;;;15.40;99.90;;;;;;5031732;28;20824;-74
2024/02/16 10:29:34;;;;;;;6.40;2.50;;;15.40;99.90;;;;;;5037180;28;20542;-76
2024/02/16 10:32:01;;;;;;;6.13;2.75;;;15.30;99.90;;;;;;5029748;28;20215;-74
2024/02/16 10:34:30;;;;;;;3.10;2.80;;;15.20;99.90;;;;;;5030739;28;20623;-73
2024/02/16 10:36:59;;;;;;;4.90;2.97;;;15.30;99.90;;;;;;5038409;28;20479;-74
2024/02/16 10:39:27;;;;;;;6.53;3.10;;;15.30;99.90;;;;;;5036305;28;20709;-74
2024/02/16 10:41:58;;;;;;;7.22;2.65;;;15.40;99.90;;;;;;5031098;28;20274;-75
2024/02/16 10:44:26;;;;;;;4.75;2.42;;;15.50;99.90;;;;;;5033794;28;20255;-73
2024/02/16 10:46:55;;;;;;;3.90;2.83;;;15.50;99.90;;;;;;5028529;28;20274;-75
2024/02/16 10:49:25;;;;;;;3.97;2.72;;;15.60;99.90;;;;;;5027579;28;20455;-73
2024/02/16 10:51:56;;;;;;;3.40;3.10;;;15.70;99.90;;;;;;5027773;28;20201;-74
2024/02/16 10:54:28;;;;;;;10.30;3.43;;;15.80;99.90;;;;;;5030689;28;20798;-74
2024/02/16 10:56:57;;;;;;;5.67;3.03;;;15.80;99.90;;;;;;5024470;28;20483;-75
2024/02/16 10:59:24;;;;;;;10.50;3.70;;;15.70;99.90;;;;;;5024942;28;20513;-73
2024/02/16 11:02:01;;;;;;;4.93;3.10;;;15.70;99.90;;;;;;5039580;28;20448;-73
2024/02/16 11:04:38;;;;;;;6.20;3.77;;;15.80;99.90;;;;;;5026248;28;20498;-73
2024/02/16 11:07:12;;;;;;;6.20;2.93;;;15.70;99.90;;;;;;5030119;28;20455;-73
2024/02/16 11:09:41;;;;;;;3.90;2.67;;;15.60;99.90;;;;;;5031897;28;20972;-73
2024/02/16 11:12:12;;;;;;;6.53;3.27;;;15.60;99.90;;;;;;5031900;28;20860;-75
2024/02/16 11:14:41;;;;;;;14.13;3.77;;;15.80;99.90;;;;;;5022800;28;20483;-74
2024/02/16 11:17:11;;;;;;;6.90;4.60;;;15.90;99.90;;;;;;5026854;28;20511;-73
2024/02/16 11:19:38;;;;;;;6.77;3.97;;;15.90;99.90;;;;;;5032230;28;20259;-73
2024/02/16 11:22:08;;;;;;;5.80;4.17;;;16.00;99.90;;;;;;5034991;28;20439;-77
2024/02/16 11:24:35;;;;;;;5.20;3.63;;;16.00;99.90;;;;;;5034413;28;20458;-74
2024/02/16 11:27:03;;;;;;;6.97;3.77;;;16.10;99.90;;;;;;5033443;28;20443;-77
2024/02/16 11:29:38;;;;;;;4.60;3.40;;;16.00;99.90;;;;;;5036028;28;20811;-75
2024/02/16 11:32:06;;;;;;;5.53;3.93;;;16.00;99.90;;;;;;5033517;28;20529;-73
2024/02/16 11:34:34;;;;;;;7.70;4.20;;;16.00;99.90;;;;;;5036312;28;20443;-74
2024/02/16 11:37:03;;;;;;;8.50;4.40;;;15.90;99.90;;;;;;5031352;28;20496;-74
2024/02/16 11:39:31;;;;;;;10.43;4.57;;;15.80;99.90;;;;;;5035665;28;20456;-73
2024/02/16 11:42:02;;;;;;;7.93;4.63;;;15.80;99.90;;;;;;5034894;28;20267;-74
2024/02/16 11:44:31;;;;;;;6.67;4.07;;;15.80;99.90;;;;;;5034188;28;20542;-74
2024/02/16 11:47:00;;;;;;;6.67;4.17;;;15.80;99.90;;;;;;5032609;28;20529;-74
2024/02/16 11:49:29;;;;;;;6.30;3.80;;;15.70;99.90;;;;;;5029467;28;20443;-74
2024/02/16 11:51:56;;;;;;;8.25;4.72;;;15.70;99.90;;;;;;5028636;28;20472;-75
2024/02/16 11:54:23;;;;;;;7.88;5.03;;;15.60;99.90;;;;;;5034761;28;20769;-73
2024/02/16 11:56:52;;;;;;;7.22;4.60;;;15.50;99.90;;;;;;5029788;28;20267;-74
2024/02/16 11:59:20;;;;;;;8.50;4.63;;;15.40;99.90;;;;;;5041851;28;20659;-74
2024/02/16 12:01:54;;;;;;;7.10;4.57;;;15.40;99.90;;;;;;5035397;28;20204;-75
2024/02/16 12:04:24;;;;;;;5.97;5.00;;;15.30;99.90;;;;;;5034508;28;20512;-73
2024/02/16 12:06:57;;;;;;;8.63;4.38;;;15.20;99.90;;;;;;5037054;28;20539;-74
2024/02/16 12:09:25;;;;;;;10.05;5.75;;;15.30;99.90;;;;;;5034303;28;20200;-75
2024/02/16 12:11:53;;;;;;;11.10;5.13;;;15.20;99.90;;;;;;5035768;28;20304;-76
2024/02/16 12:14:22;;;;;;;6.55;4.82;;;15.20;99.90;;;;;;5028114;28;20225;-73
2024/02/16 12:16:49;;;;;;;9.10;5.00;;;15.20;99.90;;;;;;5029242;28;20217;-72
2024/02/16 12:19:17;;;;;;;10.05;4.82;;;15.10;99.90;;;;;;5039183;28;20201;-75
2024/02/16 12:21:45;;;;;;;6.32;4.40;;;15.20;99.90;;;;;;5038133;28;20228;-73
2024/02/16 12:24:12;;;;;;;11.48;5.93;;;15.20;99.90;;;;;;5033697;28;20230;-74
2024/02/16 12:26:41;;;;;;;6.55;5.45;;;15.30;99.90;;;;;;5032215;28;20295;-73
2024/02/16 12:29:08;;;;;;;7.25;5.43;;;15.30;99.90;;;;;;5032882;28;20655;-75
2024/02/16 12:31:37;;;;;;;12.93;5.53;;;15.30;99.90;;;;;;5033223;28;20207;-73
2024/02/16 12:34:06;;;;;;;12.52;5.35;;;15.30;99.90;;;;;;5033409;28;20655;-74
2024/02/16 12:36:34;;;;;;;7.07;4.30;;;15.40;99.90;;;;;;5033703;28;20203;-73
2024/02/16 12:39:03;;;;;;;8.18;5.05;;;15.30;99.90;;;;;;5038503;28;20232;-74
2024/02/16 12:41:30;;;;;;;9.52;4.90;;;15.30;99.90;;;;;;5030940;28;20263;-73
2024/02/16 12:43:57;;;;;;;7.45;4.90;;;15.30;99.90;;;;;;5022609;28;20233;-75
2024/02/16 12:46:24;;;;;;;6.97;4.80;;;15.30;99.90;;;;;;5031932;28;20236;-74
2024/02/16 12:48:52;;;;;;;12.63;5.60;;;15.40;99.90;;;;;;5031950;28;20197;-74